createdAt,value
2023-02-06T00:00:09.845Z,-2.79
2023-02-06T00:02:44.504Z,-2.82
2023-02-06T00:05:19.202Z,-2.82
2023-02-06T00:07:53.147Z,-2.80
2023-02-06T00:10:27.712Z,-2.81
2023-02-06T00:13:01.297Z,-2.80
2023-02-06T00:15:35.215Z,-2.77
2023-02-06T00:18:09.029Z,-2.75
2023-02-06T00:20:42.696Z,-2.76
2023-02-06T00:23:17.190Z,-2.76
2023-02-06T00:25:51.309Z,-2.75
2023-02-06T00:28:25.234Z,-2.74
2023-02-06T00:30:59.363Z,-2.73
2023-02-06T00:33:33.389Z,-2.73
2023-02-06T00:36:07.740Z,-2.72
2023-02-06T00:38:41.935Z,-2.70
2023-02-06T00:41:15.626Z,-2.66
2023-02-06T00:43:49.239Z,-2.61
2023-02-06T00:46:23.571Z,-2.58
2023-02-06T00:48:57.217Z,-2.56
2023-02-06T00:51:30.785Z,-2.55
2023-02-06T00:54:04.890Z,-2.54
2023-02-06T00:56:39.035Z,-2.51
2023-02-06T00:59:13.525Z,-2.50
2023-02-06T01:01:47.497Z,-2.52
2023-02-06T01:04:21.159Z,-2.53
2023-02-06T01:06:55.497Z,-2.55
2023-02-06T01:09:29.015Z,-2.55
2023-02-06T01:12:03.445Z,-2.54
2023-02-06T01:14:37.327Z,-2.52
2023-02-06T01:17:11.451Z,-2.49
2023-02-06T01:19:46.035Z,-2.48
2023-02-06T01:22:19.870Z,-2.49
2023-02-06T01:24:53.308Z,-2.51
2023-02-06T01:27:27.470Z,-2.53
2023-02-06T01:30:01.371Z,-2.56
2023-02-06T01:32:37.399Z,-2.58
2023-02-06T01:35:13.243Z,-2.61
2023-02-06T01:37:49.764Z,-2.66
2023-02-06T01:40:23.856Z,-2.69
2023-02-06T01:42:57.684Z,-2.71
2023-02-06T01:45:45.701Z,-2.71
2023-02-06T01:48:20.770Z,-2.71
2023-02-06T01:50:58.617Z,-2.70
2023-02-06T01:53:32.849Z,-2.68
2023-02-06T01:56:09.361Z,-2.65
2023-02-06T01:58:46.627Z,-2.63
2023-02-06T02:01:21.359Z,-2.61
2023-02-06T02:03:58.002Z,-2.62
2023-02-06T02:06:43.786Z,-2.65
2023-02-06T02:09:19.543Z,-2.68
2023-02-06T02:11:53.693Z,-2.69
2023-02-06T02:14:27.905Z,-2.73
2023-02-06T02:17:14.695Z,-2.75
2023-02-06T02:20:17.935Z,-2.78
2023-02-06T02:23:07.840Z,-2.81
2023-02-06T02:26:18.647Z,-2.85
2023-02-06T02:29:21.960Z,-2.87
2023-02-06T02:32:39.705Z,-2.87
2023-02-06T02:35:30.511Z,-2.85
2023-02-06T02:38:27.844Z,-2.83
2023-02-06T02:41:11.535Z,-2.79
2023-02-06T02:43:51.371Z,-2.79
2023-02-06T02:46:31.895Z,-2.80
2023-02-06T02:49:10.732Z,-2.82
2023-02-06T02:52:00.173Z,-2.82
2023-02-06T02:54:44.400Z,-2.83
2023-02-06T02:57:27.582Z,-2.87
2023-02-06T03:00:13.297Z,-2.91
2023-02-06T03:02:50.479Z,-2.92
2023-02-06T03:05:39.686Z,-2.93
2023-02-06T03:08:24.234Z,-2.96
2023-02-06T03:11:07.483Z,-2.98
2023-02-06T03:13:50.648Z,-2.96
2023-02-06T03:16:28.382Z,-2.95
2023-02-06T03:19:06.840Z,-2.97
2023-02-06T03:21:42.937Z,-2.98
2023-02-06T03:24:21.186Z,-3.01
2023-02-06T03:26:59.732Z,-3.04
2023-02-06T03:29:37.099Z,-3.06
2023-02-06T03:32:16.910Z,-3.09
2023-02-06T03:35:00.331Z,-3.12
2023-02-06T03:37:36.371Z,-3.14
2023-02-06T03:40:12.532Z,-3.14
2023-02-06T03:42:51.751Z,-3.15
2023-02-06T03:45:29.721Z,-3.13
2023-02-06T03:48:08.874Z,-3.10
2023-02-06T03:50:45.991Z,-3.07
2023-02-06T03:53:22.801Z,-3.05
2023-02-06T03:56:01.774Z,-3.06
2023-02-06T03:58:35.488Z,-3.11
2023-02-06T04:01:10.256Z,-3.16
2023-02-06T04:03:44.531Z,-3.22
2023-02-06T04:06:18.257Z,-3.27
2023-02-06T04:09:02.059Z,-3.29
2023-02-06T04:11:35.446Z,-3.30
2023-02-06T04:14:09.673Z,-3.29
2023-02-06T04:16:43.548Z,-3.29
2023-02-06T04:19:17.033Z,-3.26
2023-02-06T04:21:51.004Z,-3.23
2023-02-06T04:24:24.961Z,-3.20
2023-02-06T04:26:58.784Z,-3.18
2023-02-06T04:29:32.968Z,-3.13
2023-02-06T04:32:07.316Z,-3.12
2023-02-06T04:34:42.155Z,-3.13
2023-02-06T04:37:15.936Z,-3.14
2023-02-06T04:39:50.479Z,-3.13
2023-02-06T04:42:24.452Z,-3.12
2023-02-06T04:44:57.913Z,-3.18
2023-02-06T04:47:31.848Z,-3.21
2023-02-06T04:50:06.244Z,-3.22
2023-02-06T04:52:40.156Z,-3.22
2023-02-06T04:55:14.289Z,-3.21
2023-02-06T04:57:48.612Z,-3.17
2023-02-06T05:00:22.988Z,-3.14
2023-02-06T05:02:56.814Z,-3.14
2023-02-06T05:05:31.535Z,-3.12
2023-02-06T05:08:05.900Z,-3.13
2023-02-06T05:10:39.608Z,-3.13
2023-02-06T05:13:13.752Z,-3.12
2023-02-06T05:15:48.015Z,-3.10
2023-02-06T05:18:21.874Z,-3.11
2023-02-06T05:20:56.250Z,-3.14
2023-02-06T05:23:30.320Z,-3.13
2023-02-06T05:26:04.009Z,-3.11
2023-02-06T05:28:38.190Z,-3.09
2023-02-06T05:31:18.753Z,-3.07
2023-02-06T05:33:53.988Z,-3.05
2023-02-06T05:36:29.534Z,-3.03
2023-02-06T05:39:03.184Z,-3.02
2023-02-06T05:41:36.973Z,-3.01
2023-02-06T05:44:11.490Z,-3.01
2023-02-06T05:46:45.671Z,-2.99
2023-02-06T05:49:20.001Z,-3.00
2023-02-06T05:51:53.698Z,-2.99
2023-02-06T05:54:29.583Z,-2.96
2023-02-06T05:57:03.064Z,-2.95
2023-02-06T05:59:36.964Z,-2.94
2023-02-06T06:02:11.330Z,-2.95
2023-02-06T06:04:45.723Z,-2.99
2023-02-06T06:07:19.309Z,-3.00
2023-02-06T06:09:52.969Z,-3.02
2023-02-06T06:12:30.230Z,-3.07
2023-02-06T06:15:04.237Z,-3.11
2023-02-06T06:17:38.075Z,-3.15
2023-02-06T06:20:13.451Z,-3.16
2023-02-06T06:22:47.745Z,-3.13
2023-02-06T06:25:41.885Z,-3.07
2023-02-06T06:28:15.712Z,-3.05
2023-02-06T06:30:49.647Z,-3.02
2023-02-06T06:33:33.190Z,-3.03
2023-02-06T06:36:08.226Z,-3.01
2023-02-06T06:38:44.764Z,-2.99
2023-02-06T06:41:18.700Z,-2.99
2023-02-06T06:43:52.679Z,-2.97
2023-02-06T06:46:26.984Z,-2.94
2023-02-06T06:49:01.551Z,-2.92
2023-02-06T06:51:35.012Z,-2.89
2023-02-06T06:54:09.037Z,-2.82
2023-02-06T06:56:43.301Z,-2.70
2023-02-06T06:59:17.072Z,-2.57
2023-02-06T07:01:52.960Z,-2.44
2023-02-06T07:04:33.769Z,-2.33
2023-02-06T07:07:08.163Z,-2.24
2023-02-06T07:09:42.422Z,-2.17
2023-02-06T07:12:16.180Z,-2.13
2023-02-06T07:14:49.829Z,-2.10
2023-02-06T07:17:23.418Z,-2.06
2023-02-06T07:19:57.499Z,-2.06
2023-02-06T07:22:31.572Z,-2.04
2023-02-06T07:25:06.284Z,-2.02
2023-02-06T07:27:42.763Z,-2.00
2023-02-06T07:30:17.589Z,-1.96
2023-02-06T07:32:51.576Z,-1.89
2023-02-06T07:35:25.559Z,-1.81
2023-02-06T07:37:59.707Z,-1.74
2023-02-06T07:40:44.585Z,-1.65
2023-02-06T07:43:19.469Z,-1.61
2023-02-06T07:45:53.145Z,-1.62
2023-02-06T07:48:27.162Z,-1.60
2023-02-06T07:51:05.626Z,-1.56
2023-02-06T07:53:43.069Z,-1.49
2023-02-06T07:56:18.961Z,-1.44
2023-02-06T07:58:56.208Z,-1.39
2023-02-06T08:01:30.512Z,-1.32
2023-02-06T08:04:04.546Z,-1.20
2023-02-06T08:06:41.722Z,-1.08
2023-02-06T08:09:18.068Z,-0.98
2023-02-06T08:11:54.199Z,-0.90
2023-02-06T08:14:28.915Z,-0.84
2023-02-06T08:17:03.036Z,-0.74
2023-02-06T08:19:36.945Z,-0.67
2023-02-06T08:22:10.925Z,-0.60
2023-02-06T08:24:44.846Z,-0.54
2023-02-06T08:27:18.926Z,-0.51
2023-02-06T08:29:52.962Z,-0.48
2023-02-06T08:32:26.670Z,-0.44
2023-02-06T08:35:00.550Z,-0.37
2023-02-06T08:37:34.632Z,-0.29
2023-02-06T08:40:10.154Z,-0.20
2023-02-06T08:42:44.119Z,-0.11
2023-02-06T08:45:18.096Z,-0.02
2023-02-06T08:47:52.149Z,0.06
2023-02-06T08:50:25.812Z,0.16
2023-02-06T08:53:00.423Z,0.32
2023-02-06T08:55:34.058Z,0.53
2023-02-06T08:58:07.995Z,0.72
2023-02-06T09:00:41.747Z,0.89
2023-02-06T09:03:15.813Z,1.06
2023-02-06T09:05:49.382Z,1.19
2023-02-06T09:08:23.003Z,1.42
2023-02-06T09:10:56.756Z,1.52
2023-02-06T09:13:32.144Z,1.54
2023-02-06T09:16:06.655Z,1.67
2023-02-06T09:18:41.280Z,1.85
2023-02-06T09:21:17.096Z,2.12
2023-02-06T09:23:53.064Z,2.31
2023-02-06T09:26:29.074Z,2.40
2023-02-06T09:29:14.221Z,2.48
2023-02-06T09:31:48.359Z,2.61
2023-02-06T09:34:22.182Z,2.73
2023-02-06T09:36:57.136Z,2.95
2023-02-06T09:39:32.218Z,3.24
2023-02-06T09:42:08.987Z,3.48
2023-02-06T09:44:49.279Z,3.63
2023-02-06T09:47:29.626Z,3.71
2023-02-06T09:50:07.978Z,3.73
2023-02-06T09:52:57.866Z,3.81
2023-02-06T09:55:39.504Z,3.99
2023-02-06T09:58:24.367Z,4.16
2023-02-06T10:01:07.660Z,4.34
2023-02-06T10:03:56.471Z,4.50
2023-02-06T10:06:35.225Z,4.56
2023-02-06T10:09:15.692Z,4.52
2023-02-06T10:11:54.790Z,4.41
2023-02-06T10:14:36.725Z,4.25
2023-02-06T10:17:19.640Z,4.14
2023-02-06T10:20:01.044Z,4.01
2023-02-06T10:22:40.742Z,3.91
2023-02-06T10:25:27.120Z,3.85
2023-02-06T10:28:30.113Z,3.81
2023-02-06T10:31:30.979Z,3.75
2023-02-06T10:34:20.734Z,3.71
2023-02-06T10:37:08.168Z,3.74
2023-02-06T10:39:54.734Z,3.91
2023-02-06T10:42:43.475Z,4.13
2023-02-06T10:45:35.570Z,4.42
2023-02-06T10:48:29.716Z,5.26
2023-02-06T10:51:23.859Z,6.36
2023-02-06T10:54:00.453Z,6.78
2023-02-06T10:56:38.549Z,7.33
2023-02-06T10:59:22.766Z,7.56
2023-02-06T11:02:20.764Z,7.50
2023-02-06T11:05:06.981Z,7.49
2023-02-06T11:07:44.199Z,7.56
2023-02-06T11:10:19.865Z,7.25
2023-02-06T11:13:02.377Z,6.81
2023-02-06T11:15:40.627Z,6.37
2023-02-06T11:18:19.742Z,6.02
2023-02-06T11:20:55.809Z,5.76
2023-02-06T11:23:35.424Z,5.52
2023-02-06T11:26:14.587Z,5.30
2023-02-06T11:28:58.773Z,5.07
2023-02-06T11:31:45.642Z,4.83
2023-02-06T11:34:34.515Z,4.59
2023-02-06T11:37:32.206Z,4.41
2023-02-06T11:40:27.875Z,4.22
2023-02-06T11:43:20.498Z,4.01
2023-02-06T11:46:08.025Z,3.82
2023-02-06T11:48:44.309Z,3.70
2023-02-06T11:51:18.366Z,3.61
2023-02-06T11:54:04.446Z,3.58
2023-02-06T11:56:38.530Z,3.60
2023-02-06T11:59:23.634Z,3.61
2023-02-06T12:02:30.737Z,3.63
2023-02-06T12:05:12.415Z,3.59
2023-02-06T12:07:51.309Z,3.53
2023-02-06T12:10:35.009Z,3.46
2023-02-06T12:13:16.524Z,3.44
2023-02-06T12:15:53.937Z,3.42
2023-02-06T12:18:31.167Z,3.38
2023-02-06T12:21:13.908Z,3.37
2023-02-06T12:23:54.654Z,3.34
2023-02-06T12:26:31.981Z,3.25
2023-02-06T12:29:13.666Z,3.15
2023-02-06T12:31:53.382Z,3.09
2023-02-06T12:34:32.152Z,3.07
2023-02-06T12:37:14.786Z,3.10
2023-02-06T12:39:49.657Z,3.12
2023-02-06T12:42:44.660Z,3.17
2023-02-06T12:45:37.052Z,3.25
2023-02-06T12:48:19.087Z,3.35
2023-02-06T12:51:01.048Z,3.44
2023-02-06T12:53:40.293Z,3.41
2023-02-06T12:56:31.413Z,3.40
2023-02-06T12:59:22.306Z,3.41
2023-02-06T13:02:05.653Z,3.39
2023-02-06T13:04:40.565Z,3.42
2023-02-06T13:07:19.353Z,3.45
2023-02-06T13:10:03.012Z,3.45
2023-02-06T13:12:37.319Z,3.45
2023-02-06T13:15:25.283Z,3.42
2023-02-06T13:17:58.914Z,3.42
2023-02-06T13:20:33.406Z,3.44
2023-02-06T13:23:26.098Z,3.45
2023-02-06T13:26:03.346Z,3.48
2023-02-06T13:29:03.276Z,3.50
2023-02-06T13:31:38.926Z,3.46
2023-02-06T13:34:18.643Z,3.37
2023-02-06T13:36:55.475Z,3.31
2023-02-06T13:39:35.041Z,3.27
2023-02-06T13:42:34.314Z,3.25
2023-02-06T13:45:21.659Z,3.27
2023-02-06T13:48:36.659Z,3.30
2023-02-06T13:51:44.491Z,3.31
2023-02-06T13:54:56.632Z,3.30
2023-02-06T13:57:47.439Z,3.29
2023-02-06T14:00:25.557Z,3.28
2023-02-06T14:03:06.824Z,3.27
2023-02-06T14:05:48.861Z,3.24
2023-02-06T14:08:31.338Z,3.18
2023-02-06T14:11:33.285Z,3.09
2023-02-06T14:14:25.186Z,3.02
2023-02-06T14:17:08.784Z,2.95
2023-02-06T14:19:50.538Z,2.84
2023-02-06T14:22:36.347Z,2.75
2023-02-06T14:25:36.922Z,2.76
2023-02-06T14:28:20.335Z,2.67
2023-02-06T14:31:05.269Z,2.62
2023-02-06T14:34:00.886Z,2.56
2023-02-06T14:37:00.881Z,2.45
2023-02-06T14:39:45.831Z,2.39
2023-02-06T14:42:27.630Z,2.32
2023-02-06T14:45:26.124Z,2.23
2023-02-06T14:48:02.438Z,2.15
2023-02-06T14:50:40.695Z,2.05
2023-02-06T14:53:24.041Z,1.98
2023-02-06T14:56:16.413Z,1.93
2023-02-06T14:58:51.686Z,1.87
2023-02-06T15:01:28.476Z,1.80
2023-02-06T15:04:15.771Z,1.69
2023-02-06T15:07:03.688Z,1.61
2023-02-06T15:09:40.684Z,1.49
2023-02-06T15:12:27.048Z,1.38
2023-02-06T15:15:05.668Z,1.28
2023-02-06T15:17:39.070Z,1.17
2023-02-06T15:20:40.551Z,1.04
2023-02-06T15:23:20.449Z,0.94
2023-02-06T15:26:12.237Z,0.85
2023-02-06T15:28:47.567Z,0.79
2023-02-06T15:31:24.748Z,0.72
2023-02-06T15:34:02.066Z,0.67
2023-02-06T15:36:38.437Z,0.63
2023-02-06T15:39:15.850Z,0.58
2023-02-06T15:42:24.040Z,0.53
2023-02-06T15:45:23.593Z,0.42
2023-02-06T15:47:58.994Z,0.32
2023-02-06T15:50:32.752Z,0.25
2023-02-06T15:53:21.259Z,0.17
2023-02-06T15:55:59.454Z,0.12
2023-02-06T15:58:35.311Z,0.09
2023-02-06T16:01:15.313Z,0.06
2023-02-06T16:03:55.165Z,0.05
2023-02-06T16:06:29.473Z,0.07
2023-02-06T16:09:08.723Z,0.05
2023-02-06T16:11:51.328Z,0.01
2023-02-06T16:14:32.344Z,-0.05
2023-02-06T16:17:27.056Z,-0.11
2023-02-06T16:20:03.238Z,-0.20
2023-02-06T16:22:40.389Z,-0.28
2023-02-06T16:25:26.283Z,-0.33
2023-02-06T16:28:01.334Z,-0.35
2023-02-06T16:30:37.566Z,-0.37
2023-02-06T16:33:35.537Z,-0.39
2023-02-06T16:36:13.223Z,-0.42
2023-02-06T16:38:57.672Z,-0.46
2023-02-06T16:41:39.881Z,-0.50
2023-02-06T16:44:17.470Z,-0.54
2023-02-06T16:46:51.805Z,-0.58
2023-02-06T16:49:26.169Z,-0.64
2023-02-06T16:52:01.651Z,-0.70
2023-02-06T16:54:36.180Z,-0.73
2023-02-06T16:57:17.780Z,-0.75
2023-02-06T16:59:53.099Z,-0.75
2023-02-06T17:02:29.928Z,-0.77
2023-02-06T17:05:05.812Z,-0.77
2023-02-06T17:07:40.244Z,-0.78
2023-02-06T17:10:17.321Z,-0.80
2023-02-06T17:12:53.151Z,-0.82
2023-02-06T17:15:28.059Z,-0.86
2023-02-06T17:18:02.674Z,-0.90
2023-02-06T17:20:39.770Z,-0.95
2023-02-06T17:23:15.232Z,-1.00
2023-02-06T17:25:51.221Z,-1.04
2023-02-06T17:28:25.861Z,-1.07
2023-02-06T17:31:03.556Z,-1.08
2023-02-06T17:33:38.747Z,-1.07
2023-02-06T17:36:18.505Z,-1.08
2023-02-06T17:38:53.881Z,-1.10
2023-02-06T17:41:27.804Z,-1.13
2023-02-06T17:44:03.080Z,-1.16
2023-02-06T17:46:38.516Z,-1.20
2023-02-06T17:49:13.808Z,-1.24
2023-02-06T17:51:48.132Z,-1.28
2023-02-06T17:54:23.767Z,-1.30
2023-02-06T17:56:59.586Z,-1.31
2023-02-06T17:59:34.979Z,-1.32
2023-02-06T18:02:15.976Z,-1.32
2023-02-06T18:04:54.478Z,-1.33
2023-02-06T18:07:30.042Z,-1.33
2023-02-06T18:10:04.454Z,-1.34
2023-02-06T18:12:41.268Z,-1.36
2023-02-06T18:15:16.396Z,-1.39
2023-02-06T18:17:55.326Z,-1.42
2023-02-06T18:20:30.478Z,-1.45
2023-02-06T18:23:05.266Z,-1.49
2023-02-06T18:25:43.510Z,-1.51
2023-02-06T18:28:18.787Z,-1.53
2023-02-06T18:30:57.742Z,-1.52
2023-02-06T18:33:36.512Z,-1.52
2023-02-06T18:36:16.070Z,-1.52
2023-02-06T18:38:54.884Z,-1.54
2023-02-06T18:41:49.017Z,-1.56
2023-02-06T18:44:27.937Z,-1.60
2023-02-06T18:47:06.607Z,-1.62
2023-02-06T18:49:47.112Z,-1.63
2023-02-06T18:52:23.866Z,-1.63
2023-02-06T18:55:04.311Z,-1.61
2023-02-06T18:57:42.186Z,-1.61
2023-02-06T19:00:21.703Z,-1.60
2023-02-06T19:03:05.511Z,-1.61
2023-02-06T19:05:46.529Z,-1.62
2023-02-06T19:08:22.812Z,-1.63
2023-02-06T19:11:10.627Z,-1.66
2023-02-06T19:13:48.579Z,-1.69
2023-02-06T19:16:27.325Z,-1.73
2023-02-06T19:19:03.794Z,-1.77
2023-02-06T19:21:40.386Z,-1.80
2023-02-06T19:24:19.351Z,-1.82
2023-02-06T19:27:00.671Z,-1.82
2023-02-06T19:29:39.156Z,-1.81
2023-02-06T19:32:15.989Z,-1.81
2023-02-06T19:34:52.340Z,-1.82
2023-02-06T19:37:31.559Z,-1.83
2023-02-06T19:40:09.014Z,-1.85
2023-02-06T19:42:48.110Z,-1.89
2023-02-06T19:45:33.648Z,-1.94
2023-02-06T19:48:14.383Z,-1.98
2023-02-06T19:51:07.945Z,-2.01
2023-02-06T19:54:08.179Z,-2.03
2023-02-06T19:56:50.787Z,-2.04
2023-02-06T19:59:32.076Z,-2.03
2023-02-06T20:02:31.598Z,-1.99
2023-02-06T20:05:10.188Z,-1.99
2023-02-06T20:07:48.870Z,-1.99
2023-02-06T20:10:26.199Z,-2.02
2023-02-06T20:13:04.394Z,-2.04
2023-02-06T20:15:43.400Z,-2.08
2023-02-06T20:18:19.077Z,-2.13
2023-02-06T20:20:55.793Z,-2.15
2023-02-06T20:23:31.821Z,-2.18
2023-02-06T20:26:09.245Z,-2.21
2023-02-06T20:28:45.564Z,-2.21
2023-02-06T20:31:22.316Z,-2.21
2023-02-06T20:34:01.685Z,-2.19
2023-02-06T20:36:44.765Z,-2.18
2023-02-06T20:39:22.450Z,-2.18
2023-02-06T20:41:58.968Z,-2.17
2023-02-06T20:44:35.029Z,-2.17
2023-02-06T20:47:10.601Z,-2.20
2023-02-06T20:49:51.487Z,-2.22
2023-02-06T20:52:27.047Z,-2.25
2023-02-06T20:55:04.410Z,-2.26
2023-02-06T20:57:40.259Z,-2.29
2023-02-06T21:00:20.398Z,-2.31
2023-02-06T21:02:55.001Z,-2.34
2023-02-06T21:05:31.075Z,-2.38
2023-02-06T21:08:07.365Z,-2.38
2023-02-06T21:10:42.153Z,-2.38
2023-02-06T21:13:16.356Z,-2.36
2023-02-06T21:15:57.432Z,-2.37
2023-02-06T21:18:34.752Z,-2.36
2023-02-06T21:21:12.110Z,-2.35
2023-02-06T21:23:47.873Z,-2.37
2023-02-06T21:26:23.742Z,-2.40
2023-02-06T21:28:59.719Z,-2.42
2023-02-06T21:31:37.808Z,-2.44
2023-02-06T21:34:21.740Z,-2.45
2023-02-06T21:36:55.515Z,-2.46
2023-02-06T21:39:30.991Z,-2.45
2023-02-06T21:42:04.754Z,-2.44
2023-02-06T21:44:38.806Z,-2.45
2023-02-06T21:47:12.560Z,-2.47
2023-02-06T21:49:57.149Z,-2.47
2023-02-06T21:52:31.007Z,-2.46
2023-02-06T21:55:07.525Z,-2.49
2023-02-06T21:57:42.242Z,-2.53
2023-02-06T22:00:18.233Z,-2.57
2023-02-06T22:02:51.943Z,-2.62
2023-02-06T22:05:25.920Z,-2.66
2023-02-06T22:07:59.785Z,-2.69
2023-02-06T22:10:33.258Z,-2.67
2023-02-06T22:13:07.547Z,-2.64
2023-02-06T22:15:41.357Z,-2.62
2023-02-06T22:18:15.042Z,-2.60
2023-02-06T22:20:48.868Z,-2.59
2023-02-06T22:23:22.957Z,-2.58
2023-02-06T22:25:56.703Z,-2.58
2023-02-06T22:28:30.854Z,-2.59
2023-02-06T22:31:11.156Z,-2.60
2023-02-06T22:33:48.018Z,-2.58
2023-02-06T22:36:23.387Z,-2.54
2023-02-06T22:38:59.871Z,-2.47
2023-02-06T22:41:34.426Z,-2.40
2023-02-06T22:44:11.956Z,-2.30
2023-02-06T22:46:56.528Z,-2.20
2023-02-06T22:49:30.960Z,-2.10
2023-02-06T22:52:04.784Z,-2.03
2023-02-06T22:54:39.022Z,-2.00
2023-02-06T22:57:13.066Z,-1.95
2023-02-06T22:59:46.839Z,-1.93
2023-02-06T23:02:20.527Z,-1.92
2023-02-06T23:04:54.443Z,-1.91
2023-02-06T23:07:28.351Z,-1.88
2023-02-06T23:10:01.933Z,-1.84
2023-02-06T23:12:35.565Z,-1.79
2023-02-06T23:15:10.240Z,-1.73
2023-02-06T23:17:44.747Z,-1.70
2023-02-06T23:20:19.168Z,-1.68
2023-02-06T23:22:52.651Z,-1.70
2023-02-06T23:25:26.400Z,-1.74
2023-02-06T23:28:00.390Z,-1.77
2023-02-06T23:30:34.661Z,-1.79
2023-02-06T23:33:08.853Z,-1.80
2023-02-06T23:35:43.642Z,-1.81
2023-02-06T23:38:17.458Z,-1.81
2023-02-06T23:40:51.817Z,-1.79
2023-02-06T23:43:25.466Z,-1.75
2023-02-06T23:46:00.070Z,-1.69
2023-02-06T23:48:34.423Z,-1.63
2023-02-06T23:51:08.228Z,-1.57
2023-02-06T23:53:41.834Z,-1.55
2023-02-06T23:56:17.992Z,-1.50
2023-02-06T23:58:52.247Z,-1.46
